sensor_id;sensor_type;location;lat;lon;timestamp;temperature;humidity
3778;DHT22;1904;50.076;8.660;2023-10-19T00:01:12;12.40;1.00
3778;DHT22;1904;50.076;8.660;2023-10-19T00:03:42;12.50;1.00
3778;DHT22;1904;50.076;8.660;2023-10-19T00:06:18;12.50;1.00
3778;DHT22;1904;50.076;8.660;2023-10-19T00:08:48;12.50;1.00
3778;DHT22;1904;50.076;8.660;2023-10-19T00:11:16;12.60;1.00
3778;DHT22;1904;50.076;8.660;2023-10-19T00:13:49;12.50;1.00
3778;DHT22;1904;50.076;8.660;2023-10-19T00:16:18;12.50;1.00
3778;DHT22;1904;50.076;8.660;2023-10-19T00:18:48;12.60;1.00
3778;DHT22;1904;50.076;8.660;2023-10-19T00:21:15;12.60;1.00
3778;DHT22;1904;50.076;8.660;2023-10-19T00:23:54;12.60;1.00
3778;DHT22;1904;50.076;8.660;2023-10-19T00:26:41;12.60;1.00
3778;DHT22;1904;50.076;8.660;2023-10-19T00:29:07;12.60;1.00
3778;DHT22;1904;50.076;8.660;2023-10-19T00:32:06;12.60;1.00
3778;DHT22;1904;50.076;8.660;2023-10-19T00:34:54;12.60;1.00
3778;DHT22;1904;50.076;8.660;2023-10-19T00:37:30;12.60;1.00
3778;DHT22;1904;50.076;8.660;2023-10-19T00:40:11;12.60;1.00
3778;DHT22;1904;50.076;8.660;2023-10-19T00:43:03;12.60;1.00
3778;DHT22;1904;50.076;8.660;2023-10-19T00:45:36;12.60;1.00
3778;DHT22;1904;50.076;8.660;2023-10-19T00:48:25;12.70;1.00
3778;DHT22;1904;50.076;8.660;2023-10-19T00:50:53;12.60;1.00
3778;DHT22;1904;50.076;8.660;2023-10-19T00:54:01;12.60;1.00
3778;DHT22;1904;50.076;8.660;2023-10-19T00:56:33;12.60;1.00
3778;DHT22;1904;50.076;8.660;2023-10-19T00:59:00;12.60;1.00
3778;DHT22;1904;50.076;8.660;2023-10-19T01:01:38;12.60;1.00
3778;DHT22;1904;50.076;8.660;2023-10-19T01:04:10;12.70;1.00
3778;DHT22;1904;50.076;8.660;2023-10-19T01:06:43;12.70;1.00
3778;DHT22;1904;50.076;8.660;2023-10-19T01:09:13;12.70;1.00
3778;DHT22;1904;50.076;8.660;2023-10-19T01:11:48;12.70;1.00
3778;DHT22;1904;50.076;8.660;2023-10-19T01:14:24;12.70;1.00
3778;DHT22;1904;50.076;8.660;2023-10-19T01:16:54;12.70;1.00
3778;DHT22;1904;50.076;8.660;2023-10-19T01:19:41;12.70;1.00
3778;DHT22;1904;50.076;8.660;2023-10-19T01:22:12;12.70;1.00
3778;DHT22;1904;50.076;8.660;2023-10-19T01:24:42;12.70;1.00
3778;DHT22;1904;50.076;8.660;2023-10-19T01:27:12;12.80;1.00
3778;DHT22;1904;50.076;8.660;2023-10-19T01:29:39;12.70;1.00
3778;DHT22;1904;50.076;8.660;2023-10-19T01:32:07;12.70;1.00
3778;DHT22;1904;50.076;8.660;2023-10-19T01:34:42;12.70;1.00
3778;DHT22;1904;50.076;8.660;2023-10-19T01:37:08;12.80;1.00
3778;DHT22;1904;50.076;8.660;2023-10-19T01:39:37;12.70;1.00
3778;DHT22;1904;50.076;8.660;2023-10-19T01:42:41;12.70;1.00
3778;DHT22;1904;50.076;8.660;2023-10-19T01:45:18;12.70;1.00
3778;DHT22;1904;50.076;8.660;2023-10-19T01:51:03;12.70;1.00
3778;DHT22;1904;50.076;8.660;2023-10-19T01:53:48;12.80;1.00
3778;DHT22;1904;50.076;8.660;2023-10-19T01:56:15;12.80;1.00
3778;DHT22;1904;50.076;8.660;2023-10-19T01:58:43;12.70;1.00
3778;DHT22;1904;50.076;8.660;2023-10-19T02:01:13;12.80;1.00
3778;DHT22;1904;50.076;8.660;2023-10-19T02:03:39;12.80;1.00
3778;DHT22;1904;50.076;8.660;2023-10-19T02:06:10;12.70;1.00
3778;DHT22;1904;50.076;8.660;2023-10-19T02:08:54;12.70;1.00
3778;DHT22;1904;50.076;8.660;2023-10-19T02:11:26;12.70;1.00
3778;DHT22;1904;50.076;8.660;2023-10-19T02:13:56;12.70;1.00
3778;DHT22;1904;50.076;8.660;2023-10-19T02:16:30;12.80;1.00
3778;DHT22;1904;50.076;8.660;2023-10-19T02:18:56;12.80;1.00
3778;DHT22;1904;50.076;8.660;2023-10-19T02:21:22;12.80;1.00
3778;DHT22;1904;50.076;8.660;2023-10-19T02:23:49;12.80;1.00
3778;DHT22;1904;50.076;8.660;2023-10-19T02:26:17;12.90;1.00
3778;DHT22;1904;50.076;8.660;2023-10-19T02:28:49;12.80;1.00
3778;DHT22;1904;50.076;8.660;2023-10-19T02:31:19;12.90;1.00
3778;DHT22;1904;50.076;8.660;2023-10-19T02:33:49;12.80;1.00
3778;DHT22;1904;50.076;8.660;2023-10-19T02:36:24;13.00;1.00
3778;DHT22;1904;50.076;8.660;2023-10-19T02:38:53;12.80;1.00
3778;DHT22;1904;50.076;8.660;2023-10-19T02:41:19;12.80;1.00
3778;DHT22;1904;50.076;8.660;2023-10-19T02:43:48;12.80;1.00
3778;DHT22;1904;50.076;8.660;2023-10-19T02:46:26;12.90;1.00
3778;DHT22;1904;50.076;8.660;2023-10-19T02:49:03;12.90;1.00
3778;DHT22;1904;50.076;8.660;2023-10-19T02:51:42;12.90;1.00
3778;DHT22;1904;50.076;8.660;2023-10-19T02:54:13;12.90;1.00
3778;DHT22;1904;50.076;8.660;2023-10-19T02:56:44;12.80;1.00
3778;DHT22;1904;50.076;8.660;2023-10-19T02:59:19;12.90;1.00
3778;DHT22;1904;50.076;8.660;2023-10-19T03:05:06;12.90;1.00
3778;DHT22;1904;50.076;8.660;2023-10-19T03:08:05;12.90;1.00
3778;DHT22;1904;50.076;8.660;2023-10-19T03:10:48;12.90;1.00
3778;DHT22;1904;50.076;8.660;2023-10-19T03:13:29;12.90;1.00
3778;DHT22;1904;50.076;8.660;2023-10-19T03:15:55;12.80;1.00
3778;DHT22;1904;50.076;8.660;2023-10-19T03:28:53;12.90;1.00
3778;DHT22;1904;50.076;8.660;2023-10-19T03:38:06;12.90;1.00
3778;DHT22;1904;50.076;8.660;2023-10-19T03:40:42;12.90;1.00
3778;DHT22;1904;50.076;8.660;2023-10-19T03:46:48;12.90;1.00
3778;DHT22;1904;50.076;8.660;2023-10-19T03:57:12;12.90;1.00
3778;DHT22;1904;50.076;8.660;2023-10-19T03:59:41;12.90;1.00
3778;DHT22;1904;50.076;8.660;2023-10-19T04:12:29;12.90;1.00
3778;DHT22;1904;50.076;8.660;2023-10-19T04:14:55;12.90;1.00
3778;DHT22;1904;50.076;8.660;2023-10-19T04:17:45;13.00;1.00
3778;DHT22;1904;50.076;8.660;2023-10-19T04:20:16;13.00;1.00
3778;DHT22;1904;50.076;8.660;2023-10-19T04:22:46;13.00;1.00
3778;DHT22;1904;50.076;8.660;2023-10-19T04:25:13;13.00;1.00
3778;DHT22;1904;50.076;8.660;2023-10-19T04:27:42;13.00;1.00
3778;DHT22;1904;50.076;8.660;2023-10-19T04:30:09;13.10;1.00
3778;DHT22;1904;50.076;8.660;2023-10-19T04:36:03;13.10;1.00
3778;DHT22;1904;50.076;8.660;2023-10-19T04:38:30;13.00;1.00
3778;DHT22;1904;50.076;8.660;2023-10-19T04:41:17;13.00;1.00
3778;DHT22;1904;50.076;8.660;2023-10-19T04:47:12;13.00;1.00
3778;DHT22;1904;50.076;8.660;2023-10-19T04:49:42;12.90;1.00
3778;DHT22;1904;50.076;8.660;2023-10-19T04:52:24;12.90;1.00
3778;DHT22;1904;50.076;8.660;2023-10-19T04:54:54;13.00;1.00
3778;DHT22;1904;50.076;8.660;2023-10-19T04:57:30;13.00;1.00
3778;DHT22;1904;50.076;8.660;2023-10-19T04:59:57;13.00;1.00
3778;DHT22;1904;50.076;8.660;2023-10-19T05:02:47;13.00;1.00
3778;DHT22;1904;50.076;8.660;2023-10-19T05:05:13;13.10;1.00
3778;DHT22;1904;50.076;8.660;2023-10-19T05:11:00;13.10;1.00
3778;DHT22;1904;50.076;8.660;2023-10-19T05:13:42;13.20;1.00
3778;DHT22;1904;50.076;8.660;2023-10-19T05:16:18;13.20;1.00
3778;DHT22;1904;50.076;8.660;2023-10-19T05:18:44;13.20;1.00
3778;DHT22;1904;50.076;8.660;2023-10-19T05:21:18;13.30;1.00
3778;DHT22;1904;50.076;8.660;2023-10-19T05:24:06;13.30;1.00
3778;DHT22;1904;50.076;8.660;2023-10-19T05:26:33;13.20;1.00
3778;DHT22;1904;50.076;8.660;2023-10-19T05:39:05;13.30;5.80
3778;DHT22;1904;50.076;8.660;2023-10-19T05:41:35;13.40;5.20
3778;DHT22;1904;50.076;8.660;2023-10-19T05:44:23;13.50;5.00
3778;DHT22;1904;50.076;8.660;2023-10-19T05:53:17;13.60;1.00
3778;DHT22;1904;50.076;8.660;2023-10-19T05:56:00;13.60;1.00
3778;DHT22;1904;50.076;8.660;2023-10-19T05:58:30;13.70;1.00
3778;DHT22;1904;50.076;8.660;2023-10-19T06:01:06;14.30;1.00
3778;DHT22;1904;50.076;8.660;2023-10-19T06:07:00;13.80;1.00
3778;DHT22;1904;50.076;8.660;2023-10-19T06:09:30;13.80;1.00
3778;DHT22;1904;50.076;8.660;2023-10-19T06:12:13;13.80;1.00
3778;DHT22;1904;50.076;8.660;2023-10-19T06:14:55;13.70;1.00
3778;DHT22;1904;50.076;8.660;2023-10-19T06:24:05;13.80;1.00
3778;DHT22;1904;50.076;8.660;2023-10-19T06:26:42;13.90;1.00
3778;DHT22;1904;50.076;8.660;2023-10-19T06:29:12;13.90;1.00
3778;DHT22;1904;50.076;8.660;2023-10-19T06:31:42;14.50;1.00
3778;DHT22;1904;50.076;8.660;2023-10-19T06:34:12;14.20;1.00
3778;DHT22;1904;50.076;8.660;2023-10-19T06:36:42;14.00;1.00
3778;DHT22;1904;50.076;8.660;2023-10-19T06:39:24;13.90;1.00
3778;DHT22;1904;50.076;8.660;2023-10-19T06:41:54;14.00;1.00
3778;DHT22;1904;50.076;8.660;2023-10-19T06:44:53;14.00;1.00
3778;DHT22;1904;50.076;8.660;2023-10-19T06:47:36;14.00;1.00
3778;DHT22;1904;50.076;8.660;2023-10-19T06:50:22;14.10;1.00
3778;DHT22;1904;50.076;8.660;2023-10-19T06:52:48;14.80;1.00
3778;DHT22;1904;50.076;8.660;2023-10-19T06:55:16;14.20;1.00
3778;DHT22;1904;50.076;8.660;2023-10-19T07:04:30;14.30;1.00
3778;DHT22;1904;50.076;8.660;2023-10-19T07:07:00;14.40;1.00
3778;DHT22;1904;50.076;8.660;2023-10-19T07:09:42;14.50;1.00
3778;DHT22;1904;50.076;8.660;2023-10-19T07:12:24;14.50;1.00
3778;DHT22;1904;50.076;8.660;2023-10-19T07:14:54;14.60;1.00
3778;DHT22;1904;50.076;8.660;2023-10-19T07:17:21;14.60;1.00
3778;DHT22;1904;50.076;8.660;2023-10-19T07:20:06;14.60;1.00
3778;DHT22;1904;50.076;8.660;2023-10-19T07:26:23;14.70;1.00
3778;DHT22;1904;50.076;8.660;2023-10-19T07:32:02;14.80;1.00
3778;DHT22;1904;50.076;8.660;2023-10-19T07:34:33;14.90;1.00
3778;DHT22;1904;50.076;8.660;2023-10-19T07:37:00;14.80;1.00
3778;DHT22;1904;50.076;8.660;2023-10-19T07:39:30;14.80;1.00
3778;DHT22;1904;50.076;8.660;2023-10-19T07:41:59;14.90;1.00
3778;DHT22;1904;50.076;8.660;2023-10-19T07:44:25;15.00;1.00
3778;DHT22;1904;50.076;8.660;2023-10-19T07:46:54;14.90;1.00
3778;DHT22;1904;50.076;8.660;2023-10-19T07:49:24;15.00;1.00
3778;DHT22;1904;50.076;8.660;2023-10-19T07:52:17;15.10;1.00
3778;DHT22;1904;50.076;8.660;2023-10-19T07:55:00;15.00;1.00
3778;DHT22;1904;50.076;8.660;2023-10-19T07:57:30;15.00;1.00
3778;DHT22;1904;50.076;8.660;2023-10-19T08:00:19;15.00;1.00
3778;DHT22;1904;50.076;8.660;2023-10-19T08:02:45;15.00;1.00
3778;DHT22;1904;50.076;8.660;2023-10-19T08:05:24;15.10;1.00
3778;DHT22;1904;50.076;8.660;2023-10-19T08:07:54;15.30;1.00
3778;DHT22;1904;50.076;8.660;2023-10-19T08:10:30;15.30;1.00
3778;DHT22;1904;50.076;8.660;2023-10-19T08:13:06;15.50;1.00
3778;DHT22;1904;50.076;8.660;2023-10-19T08:15:32;15.50;1.00
3778;DHT22;1904;50.076;8.660;2023-10-19T08:18:00;15.60;1.00
3778;DHT22;1904;50.076;8.660;2023-10-19T08:20:26;15.70;1.00
3778;DHT22;1904;50.076;8.660;2023-10-19T08:29:18;15.70;1.00
3778;DHT22;1904;50.076;8.660;2023-10-19T08:31:44;15.50;1.00
3778;DHT22;1904;50.076;8.660;2023-10-19T08:34:13;15.60;1.00
3778;DHT22;1904;50.076;8.660;2023-10-19T08:36:40;15.50;1.00
3778;DHT22;1904;50.076;8.660;2023-10-19T08:39:08;15.40;1.00
3778;DHT22;1904;50.076;8.660;2023-10-19T08:41:35;15.30;1.00
3778;DHT22;1904;50.076;8.660;2023-10-19T08:44:04;15.40;1.00
3778;DHT22;1904;50.076;8.660;2023-10-19T08:46:43;15.50;1.00
3778;DHT22;1904;50.076;8.660;2023-10-19T08:49:18;15.60;1.00
3778;DHT22;1904;50.076;8.660;2023-10-19T08:51:46;15.60;1.00
3778;DHT22;1904;50.076;8.660;2023-10-19T08:54:24;15.70;1.00
3778;DHT22;1904;50.076;8.660;2023-10-19T08:57:06;15.80;1.00
3778;DHT22;1904;50.076;8.660;2023-10-19T08:59:42;16.00;1.00
3778;DHT22;1904;50.076;8.660;2023-10-19T09:02:12;16.00;1.00
3778;DHT22;1904;50.076;8.660;2023-10-19T09:04:43;16.20;1.00
3778;DHT22;1904;50.076;8.660;2023-10-19T09:07:42;16.40;1.00
3778;DHT22;1904;50.076;8.660;2023-10-19T09:13:50;16.60;1.00
3778;DHT22;1904;50.076;8.660;2023-10-19T09:16:17;16.70;1.00
3778;DHT22;1904;50.076;8.660;2023-10-19T09:18:49;16.70;1.00
3778;DHT22;1904;50.076;8.660;2023-10-19T09:21:16;16.80;1.00
3778;DHT22;1904;50.076;8.660;2023-10-19T09:23:53;16.90;1.00
3778;DHT22;1904;50.076;8.660;2023-10-19T09:26:24;16.90;1.00
3778;DHT22;1904;50.076;8.660;2023-10-19T09:28:52;17.00;1.00
3778;DHT22;1904;50.076;8.660;2023-10-19T09:31:47;17.00;1.00
3778;DHT22;1904;50.076;8.660;2023-10-19T09:34:14;17.00;1.00
3778;DHT22;1904;50.076;8.660;2023-10-19T09:40:24;17.20;1.00
3778;DHT22;1904;50.076;8.660;2023-10-19T09:42:56;17.30;1.00
3778;DHT22;1904;50.076;8.660;2023-10-19T09:48:54;17.70;1.00
3778;DHT22;1904;50.076;8.660;2023-10-19T09:51:24;17.70;1.00
3778;DHT22;1904;50.076;8.660;2023-10-19T09:54:16;17.80;1.00
3778;DHT22;1904;50.076;8.660;2023-10-19T09:56:55;17.90;1.00
3778;DHT22;1904;50.076;8.660;2023-10-19T09:59:45;17.90;1.00
3778;DHT22;1904;50.076;8.660;2023-10-19T10:02:12;18.00;1.00
3778;DHT22;1904;50.076;8.660;2023-10-19T10:11:25;19.00;1.00
3778;DHT22;1904;50.076;8.660;2023-10-19T10:14:24;19.00;1.00
3778;DHT22;1904;50.076;8.660;2023-10-19T10:17:02;19.10;1.00
3778;DHT22;1904;50.076;8.660;2023-10-19T10:26:30;19.40;1.00
3778;DHT22;1904;50.076;8.660;2023-10-19T10:38:12;20.40;1.00
3778;DHT22;1904;50.076;8.660;2023-10-19T10:47:54;20.40;1.00
3778;DHT22;1904;50.076;8.660;2023-10-19T10:50:24;20.60;1.00
3778;DHT22;1904;50.076;8.660;2023-10-19T10:52:50;20.60;1.00
3778;DHT22;1904;50.076;8.660;2023-10-19T10:55:24;20.40;1.00
3778;DHT22;1904;50.076;8.660;2023-10-19T10:57:54;20.20;1.00
3778;DHT22;1904;50.076;8.660;2023-10-19T11:00:20;20.10;1.00
3778;DHT22;1904;50.076;8.660;2023-10-19T11:03:00;20.10;1.00
3778;DHT22;1904;50.076;8.660;2023-10-19T11:05:48;20.10;1.00
3778;DHT22;1904;50.076;8.660;2023-10-19T11:11:19;20.10;1.00
3778;DHT22;1904;50.076;8.660;2023-10-19T11:17:24;20.00;1.00
3778;DHT22;1904;50.076;8.660;2023-10-19T11:20:21;19.90;1.00
3778;DHT22;1904;50.076;8.660;2023-10-19T11:23:06;19.90;1.00
3778;DHT22;1904;50.076;8.660;2023-10-19T11:25:57;19.70;1.00
3778;DHT22;1904;50.076;8.660;2023-10-19T11:28:24;19.70;1.00
3778;DHT22;1904;50.076;8.660;2023-10-19T11:30:54;19.70;1.00
3778;DHT22;1904;50.076;8.660;2023-10-19T11:33:43;19.70;1.00
3778;DHT22;1904;50.076;8.660;2023-10-19T11:36:12;19.60;1.00
3778;DHT22;1904;50.076;8.660;2023-10-19T11:38:40;19.50;1.00
3778;DHT22;1904;50.076;8.660;2023-10-19T11:41:06;19.50;1.00
3778;DHT22;1904;50.076;8.660;2023-10-19T11:43:34;19.40;1.00
3778;DHT22;1904;50.076;8.660;2023-10-19T11:46:24;19.40;1.00
3778;DHT22;1904;50.076;8.660;2023-10-19T11:49:24;19.30;1.00
3778;DHT22;1904;50.076;8.660;2023-10-19T11:54:48;19.40;1.00
3778;DHT22;1904;50.076;8.660;2023-10-19T12:00:24;19.60;1.00
3778;DHT22;1904;50.076;8.660;2023-10-19T12:02:59;19.70;1.00
3778;DHT22;1904;50.076;8.660;2023-10-19T12:09:24;19.70;1.00
3778;DHT22;1904;50.076;8.660;2023-10-19T12:12:24;19.60;1.00
3778;DHT22;1904;50.076;8.660;2023-10-19T12:17:21;19.70;1.00
3778;DHT22;1904;50.076;8.660;2023-10-19T12:26:56;20.00;1.00
3778;DHT22;1904;50.076;8.660;2023-10-19T12:29:24;20.00;1.00
3778;DHT22;1904;50.076;8.660;2023-10-19T12:31:51;20.10;1.00
3778;DHT22;1904;50.076;8.660;2023-10-19T12:34:18;20.10;1.00
3778;DHT22;1904;50.076;8.660;2023-10-19T12:36:54;20.10;1.00
3778;DHT22;1904;50.076;8.660;2023-10-19T12:39:31;20.10;1.00
3778;DHT22;1904;50.076;8.660;2023-10-19T12:42:24;20.10;1.00
3778;DHT22;1904;50.076;8.660;2023-10-19T12:44:54;20.10;1.00
3778;DHT22;1904;50.076;8.660;2023-10-19T12:47:54;20.00;1.00
3778;DHT22;1904;50.076;8.660;2023-10-19T12:56:54;19.80;1.00
3778;DHT22;1904;50.076;8.660;2023-10-19T12:59:54;19.70;1.00
3778;DHT22;1904;50.076;8.660;2023-10-19T13:02:54;19.60;1.00
3778;DHT22;1904;50.076;8.660;2023-10-19T13:08:24;19.40;1.00
3778;DHT22;1904;50.076;8.660;2023-10-19T13:11:24;19.20;1.00
3778;DHT22;1904;50.076;8.660;2023-10-19T13:14:00;19.00;1.00
3778;DHT22;1904;50.076;8.660;2023-10-19T13:16:54;19.00;1.00
3778;DHT22;1904;50.076;8.660;2023-10-19T13:19:24;18.90;1.00
3778;DHT22;1904;50.076;8.660;2023-10-19T13:22:06;18.90;1.00
3778;DHT22;1904;50.076;8.660;2023-10-19T13:27:54;19.00;1.00
3778;DHT22;1904;50.076;8.660;2023-10-19T13:36:54;19.10;1.00
3778;DHT22;1904;50.076;8.660;2023-10-19T13:39:24;19.00;1.00
3778;DHT22;1904;50.076;8.660;2023-10-19T13:41:54;19.00;1.00
3778;DHT22;1904;50.076;8.660;2023-10-19T13:44:20;18.90;1.00
3778;DHT22;1904;50.076;8.660;2023-10-19T13:46:54;18.80;1.00
3778;DHT22;1904;50.076;8.660;2023-10-19T13:49:20;18.80;1.00
3778;DHT22;1904;50.076;8.660;2023-10-19T13:54:24;18.70;1.00
3778;DHT22;1904;50.076;8.660;2023-10-19T13:56:50;18.70;1.00
3778;DHT22;1904;50.076;8.660;2023-10-19T14:02:37;18.70;1.00
3778;DHT22;1904;50.076;8.660;2023-10-19T14:05:24;18.70;1.00
3778;DHT22;1904;50.076;8.660;2023-10-19T14:14:33;18.50;1.00
3778;DHT22;1904;50.076;8.660;2023-10-19T14:17:18;18.40;1.00
3778;DHT22;1904;50.076;8.660;2023-10-19T14:20:06;18.40;1.00
3778;DHT22;1904;50.076;8.660;2023-10-19T14:22:32;18.30;1.00
3778;DHT22;1904;50.076;8.660;2023-10-19T14:25:24;18.20;1.00
3778;DHT22;1904;50.076;8.660;2023-10-19T14:31:07;18.20;1.00
3778;DHT22;1904;50.076;8.660;2023-10-19T14:34:06;18.10;1.00
3778;DHT22;1904;50.076;8.660;2023-10-19T14:46:36;17.90;1.00
3778;DHT22;1904;50.076;8.660;2023-10-19T14:52:42;17.80;1.00
3778;DHT22;1904;50.076;8.660;2023-10-19T15:05:39;17.80;1.00
3778;DHT22;1904;50.076;8.660;2023-10-19T15:08:06;17.80;1.00
3778;DHT22;1904;50.076;8.660;2023-10-19T15:13:54;17.80;1.00
3778;DHT22;1904;50.076;8.660;2023-10-19T15:16:36;17.80;1.00
3778;DHT22;1904;50.076;8.660;2023-10-19T15:22:43;17.70;1.00
3778;DHT22;1904;50.076;8.660;2023-10-19T15:27:55;17.50;1.00
3778;DHT22;1904;50.076;8.660;2023-10-19T15:30:30;17.50;1.00
3778;DHT22;1904;50.076;8.660;2023-10-19T15:33:24;17.50;1.00
3778;DHT22;1904;50.076;8.660;2023-10-19T15:36:18;17.40;1.00
3778;DHT22;1904;50.076;8.660;2023-10-19T15:41:49;17.40;1.00
3778;DHT22;1904;50.076;8.660;2023-10-19T15:50:59;17.50;1.00
3778;DHT22;1904;50.076;8.660;2023-10-19T15:53:32;17.60;1.00
3778;DHT22;1904;50.076;8.660;2023-10-19T16:02:43;17.60;1.00
3778;DHT22;1904;50.076;8.660;2023-10-19T16:11:02;17.30;1.00
3778;DHT22;1904;50.076;8.660;2023-10-19T16:13:36;17.30;1.00
3778;DHT22;1904;50.076;8.660;2023-10-19T16:16:03;17.20;1.00
3778;DHT22;1904;50.076;8.660;2023-10-19T16:18:30;17.20;1.00
3778;DHT22;1904;50.076;8.660;2023-10-19T16:20:56;17.10;1.00
3778;DHT22;1904;50.076;8.660;2023-10-19T16:27:06;16.80;1.00
3778;DHT22;1904;50.076;8.660;2023-10-19T16:29:36;16.50;1.00
3778;DHT22;1904;50.076;8.660;2023-10-19T16:32:21;16.30;1.00
3778;DHT22;1904;50.076;8.660;2023-10-19T16:35:00;16.30;1.00
3778;DHT22;1904;50.076;8.660;2023-10-19T16:41:24;16.20;1.00
3778;DHT22;1904;50.076;8.660;2023-10-19T16:44:18;16.10;1.00
3778;DHT22;1904;50.076;8.660;2023-10-19T16:50:24;15.90;1.00
3778;DHT22;1904;50.076;8.660;2023-10-19T16:53:00;15.80;1.00
3778;DHT22;1904;50.076;8.660;2023-10-19T16:55:30;15.70;1.00
3778;DHT22;1904;50.076;8.660;2023-10-19T17:06:30;15.80;1.00
3778;DHT22;1904;50.076;8.660;2023-10-19T17:09:30;15.80;1.00
3778;DHT22;1904;50.076;8.660;2023-10-19T17:11:56;15.80;1.00
3778;DHT22;1904;50.076;8.660;2023-10-19T17:14:55;15.80;1.00
3778;DHT22;1904;50.076;8.660;2023-10-19T17:17:21;15.80;1.00
3778;DHT22;1904;50.076;8.660;2023-10-19T17:29:47;15.90;1.00
3778;DHT22;1904;50.076;8.660;2023-10-19T17:35:48;15.90;1.00
3778;DHT22;1904;50.076;8.660;2023-10-19T17:38:36;15.90;1.00
3778;DHT22;1904;50.076;8.660;2023-10-19T17:41:12;15.90;1.00
3778;DHT22;1904;50.076;8.660;2023-10-19T17:43:42;15.90;1.00
3778;DHT22;1904;50.076;8.660;2023-10-19T17:46:30;16.00;1.00
3778;DHT22;1904;50.076;8.660;2023-10-19T17:49:18;16.00;1.00
3778;DHT22;1904;50.076;8.660;2023-10-19T17:52:00;16.00;1.00
3778;DHT22;1904;50.076;8.660;2023-10-19T17:54:30;16.00;1.00
3778;DHT22;1904;50.076;8.660;2023-10-19T18:03:54;16.00;1.00
3778;DHT22;1904;50.076;8.660;2023-10-19T18:06:33;16.00;1.00
3778;DHT22;1904;50.076;8.660;2023-10-19T18:09:12;16.00;1.00
3778;DHT22;1904;50.076;8.660;2023-10-19T18:15:00;16.10;1.70
3778;DHT22;1904;50.076;8.660;2023-10-19T18:20:48;16.10;1.00
3778;DHT22;1904;50.076;8.660;2023-10-19T18:27:00;16.00;1.70
3778;DHT22;1904;50.076;8.660;2023-10-19T18:36:10;16.00;1.00
3778;DHT22;1904;50.076;8.660;2023-10-19T18:41:42;16.10;1.70
3778;DHT22;1904;50.076;8.660;2023-10-19T18:44:36;16.10;1.80
3778;DHT22;1904;50.076;8.660;2023-10-19T18:47:06;16.10;2.30
3778;DHT22;1904;50.076;8.660;2023-10-19T18:49:36;16.10;2.70
3778;DHT22;1904;50.076;8.660;2023-10-19T18:52:06;16.10;1.20
3778;DHT22;1904;50.076;8.660;2023-10-19T18:54:33;16.10;4.50
3778;DHT22;1904;50.076;8.660;2023-10-19T18:57:00;16.10;4.50
3778;DHT22;1904;50.076;8.660;2023-10-19T18:59:30;16.10;2.00
3778;DHT22;1904;50.076;8.660;2023-10-19T19:02:18;16.10;5.00
3778;DHT22;1904;50.076;8.660;2023-10-19T19:04:48;16.10;2.20
3778;DHT22;1904;50.076;8.660;2023-10-19T19:07:18;16.10;3.60
3778;DHT22;1904;50.076;8.660;2023-10-19T19:12:49;16.00;7.00
3778;DHT22;1904;50.076;8.660;2023-10-19T19:15:15;16.00;4.80
3778;DHT22;1904;50.076;8.660;2023-10-19T19:17:42;16.00;7.00
3778;DHT22;1904;50.076;8.660;2023-10-19T19:26:24;15.90;7.00
3778;DHT22;1904;50.076;8.660;2023-10-19T19:28:54;15.80;7.20
3778;DHT22;1904;50.076;8.660;2023-10-19T19:31:25;15.80;7.30
3778;DHT22;1904;50.076;8.660;2023-10-19T19:37:00;15.70;7.70
3778;DHT22;1904;50.076;8.660;2023-10-19T19:39:26;15.70;7.00
3778;DHT22;1904;50.076;8.660;2023-10-19T19:41:52;15.70;7.10
3778;DHT22;1904;50.076;8.660;2023-10-19T19:44:17;15.60;7.70
3778;DHT22;1904;50.076;8.660;2023-10-19T19:46:43;15.60;8.50
3778;DHT22;1904;50.076;8.660;2023-10-19T19:49:09;15.60;8.90
3778;DHT22;1904;50.076;8.660;2023-10-19T19:51:36;15.60;9.10
3778;DHT22;1904;50.076;8.660;2023-10-19T19:54:36;15.60;9.10
3778;DHT22;1904;50.076;8.660;2023-10-19T19:57:24;15.60;9.00
3778;DHT22;1904;50.076;8.660;2023-10-19T20:00:24;15.50;9.00
3778;DHT22;1904;50.076;8.660;2023-10-19T20:02:54;15.50;8.90
3778;DHT22;1904;50.076;8.660;2023-10-19T20:05:42;15.40;9.40
3778;DHT22;1904;50.076;8.660;2023-10-19T20:08:36;15.40;9.60
3778;DHT22;1904;50.076;8.660;2023-10-19T20:17:20;15.30;12.50
3778;DHT22;1904;50.076;8.660;2023-10-19T20:20:04;15.40;12.20
3778;DHT22;1904;50.076;8.660;2023-10-19T20:22:42;15.30;14.50
3778;DHT22;1904;50.076;8.660;2023-10-19T20:28:30;15.30;15.80
3778;DHT22;1904;50.076;8.660;2023-10-19T20:31:06;15.30;15.40
3778;DHT22;1904;50.076;8.660;2023-10-19T20:33:42;15.30;15.50
3778;DHT22;1904;50.076;8.660;2023-10-19T20:36:30;15.30;15.20
3778;DHT22;1904;50.076;8.660;2023-10-19T20:39:18;15.20;14.20
3778;DHT22;1904;50.076;8.660;2023-10-19T20:48:30;15.20;14.10
3778;DHT22;1904;50.076;8.660;2023-10-19T20:51:18;15.20;12.60
3778;DHT22;1904;50.076;8.660;2023-10-19T20:53:44;15.20;13.40
3778;DHT22;1904;50.076;8.660;2023-10-19T20:56:10;15.20;16.10
3778;DHT22;1904;50.076;8.660;2023-10-19T20:58:36;15.20;16.30
3778;DHT22;1904;50.076;8.660;2023-10-19T21:01:06;15.40;17.90
3778;DHT22;1904;50.076;8.660;2023-10-19T21:03:36;15.30;17.80
3778;DHT22;1904;50.076;8.660;2023-10-19T21:06:13;15.30;18.10
3778;DHT22;1904;50.076;8.660;2023-10-19T21:08:40;15.40;18.00
3778;DHT22;1904;50.076;8.660;2023-10-19T21:11:17;15.40;18.00
3778;DHT22;1904;50.076;8.660;2023-10-19T21:16:15;15.40;15.40
3778;DHT22;1904;50.076;8.660;2023-10-19T21:18:43;15.40;18.10
3778;DHT22;1904;50.076;8.660;2023-10-19T21:21:13;15.40;17.50
3778;DHT22;1904;50.076;8.660;2023-10-19T21:23:42;15.40;17.80
3778;DHT22;1904;50.076;8.660;2023-10-19T21:26:12;15.40;14.60
3778;DHT22;1904;50.076;8.660;2023-10-19T21:32:00;15.50;18.20
3778;DHT22;1904;50.076;8.660;2023-10-19T21:34:42;15.50;18.20
3778;DHT22;1904;50.076;8.660;2023-10-19T21:37:24;15.50;15.80
3778;DHT22;1904;50.076;8.660;2023-10-19T21:39:52;15.50;18.00
3778;DHT22;1904;50.076;8.660;2023-10-19T21:42:31;15.50;18.50
3778;DHT22;1904;50.076;8.660;2023-10-19T21:44:56;15.60;19.40
3778;DHT22;1904;50.076;8.660;2023-10-19T21:47:23;15.50;19.50
3778;DHT22;1904;50.076;8.660;2023-10-19T21:49:49;15.60;19.60
3778;DHT22;1904;50.076;8.660;2023-10-19T21:52:16;15.60;20.60
3778;DHT22;1904;50.076;8.660;2023-10-19T21:54:50;15.70;21.10
3778;DHT22;1904;50.076;8.660;2023-10-19T21:57:16;15.70;21.10
3778;DHT22;1904;50.076;8.660;2023-10-19T21:59:43;15.70;21.50
3778;DHT22;1904;50.076;8.660;2023-10-19T22:02:09;15.70;21.40
3778;DHT22;1904;50.076;8.660;2023-10-19T22:04:36;15.80;24.30
3778;DHT22;1904;50.076;8.660;2023-10-19T22:07:06;15.70;21.20
3778;DHT22;1904;50.076;8.660;2023-10-19T22:10:00;15.70;20.90
3778;DHT22;1904;50.076;8.660;2023-10-19T22:12:36;15.80;20.40
3778;DHT22;1904;50.076;8.660;2023-10-19T22:15:02;15.80;20.40
3778;DHT22;1904;50.076;8.660;2023-10-19T22:17:29;15.80;20.00
3778;DHT22;1904;50.076;8.660;2023-10-19T22:20:30;15.80;19.40
3778;DHT22;1904;50.076;8.660;2023-10-19T22:26:17;15.70;19.20
3778;DHT22;1904;50.076;8.660;2023-10-19T22:28:43;15.70;19.00
3778;DHT22;1904;50.076;8.660;2023-10-19T22:31:09;15.70;19.30
3778;DHT22;1904;50.076;8.660;2023-10-19T22:33:34;15.70;19.40
3778;DHT22;1904;50.076;8.660;2023-10-19T22:36:00;15.70;19.50
3778;DHT22;1904;50.076;8.660;2023-10-19T22:38:30;15.70;19.40
3778;DHT22;1904;50.076;8.660;2023-10-19T22:41:06;15.70;18.80
3778;DHT22;1904;50.076;8.660;2023-10-19T22:50:06;15.60;17.20
3778;DHT22;1904;50.076;8.660;2023-10-19T22:53:06;15.60;17.00
3778;DHT22;1904;50.076;8.660;2023-10-19T22:55:36;15.50;19.60
3778;DHT22;1904;50.076;8.660;2023-10-19T22:58:02;15.50;22.80
3778;DHT22;1904;50.076;8.660;2023-10-19T23:00:28;15.50;25.20
3778;DHT22;1904;50.076;8.660;2023-10-19T23:02:54;15.60;25.90
3778;DHT22;1904;50.076;8.660;2023-10-19T23:05:24;15.60;26.50